Time;durP1;ratioP1;P1;durP2;ratioP2;P2;SDS_P1;SDS_P2;PMS_P1;PMS_P2;Temp;Humidity;BMP_temperature;BMP_pressure;BME280_temperature;BME280_humidity;BME280_pressure;Samples;Min_cycle;Max_cycle;Signal;HPM_P1;HPM_P2
2023/08/15 00:00:31;;;;;;;4.13;3.40;;;;;;;;;;5093833;28;20443;-57
2023/08/15 00:03:00;;;;;;;6.80;3.87;;;;;;;;;;5093879;28;20503;-56
2023/08/15 00:05:27;;;;;;;5.80;3.53;;;;;;;;;;5094004;28;20504;-56
2023/08/15 00:07:54;;;;;;;4.70;3.77;;;;;;;;;;5094448;28;20471;-57
2023/08/15 00:10:21;;;;;;;5.40;3.60;;;;;;;;;;5093715;28;20483;-57
2023/08/15 00:12:49;;;;;;;4.40;3.30;;;;;;;;;;5093625;28;20526;-56
2023/08/15 00:15:16;;;;;;;4.13;3.73;;;;;;;;;;5093942;28;20873;-56
2023/08/15 00:17:43;;;;;;;3.90;3.40;;;;;;;;;;5093366;28;20463;-58
2023/08/15 00:20:12;;;;;;;10.13;4.83;;;;;;;;;;5093597;28;20475;-56
2023/08/15 00:22:39;;;;;;;5.00;4.43;;;;;;;;;;5093500;28;20528;-57
2023/08/15 00:25:07;;;;;;;6.20;4.23;;;;;;;;;;5093432;28;20998;-56
2023/08/15 00:27:34;;;;;;;4.97;3.90;;;;;;;;;;5093464;28;20550;-57
2023/08/15 00:30:01;;;;;;;5.43;3.67;;;;;;;;;;5093474;28;20526;-56
2023/08/15 00:32:31;;;;;;;6.40;4.30;;;;;;;;;;5077067;28;20439;-57
2023/08/15 00:34:58;;;;;;;5.20;4.30;;;;;;;;;;5093675;28;20443;-58
2023/08/15 00:37:26;;;;;;;8.10;4.10;;;;;;;;;;5093730;28;20460;-58
2023/08/15 00:39:54;;;;;;;6.40;4.10;;;;;;;;;;5092781;28;20564;-57
2023/08/15 00:42:21;;;;;;;5.20;4.30;;;;;;;;;;5092753;28;20524;-57
2023/08/15 00:44:48;;;;;;;4.87;4.00;;;;;;;;;;5093542;28;20447;-58
2023/08/15 00:47:16;;;;;;;8.00;4.10;;;;;;;;;;5093214;28;21002;-58
2023/08/15 00:49:44;;;;;;;3.93;3.40;;;;;;;;;;5092566;28;20475;-57
2023/08/15 00:52:14;;;;;;;5.83;4.10;;;;;;;;;;5092251;28;20862;-57
2023/08/15 00:54:43;;;;;;;4.20;3.80;;;;;;;;;;5091970;28;20904;-58
2023/08/15 00:57:11;;;;;;;5.97;3.70;;;;;;;;;;5092974;28;20542;-59
2023/08/15 00:59:38;;;;;;;5.50;4.27;;;;;;;;;;5093292;28;20436;-56
2023/08/15 01:02:06;;;;;;;4.60;3.23;;;;;;;;;;5092393;28;20506;-57
2023/08/15 01:04:33;;;;;;;5.97;3.73;;;;;;;;;;5092533;28;20528;-58
2023/08/15 01:07:00;;;;;;;7.13;3.87;;;;;;;;;;5092445;28;20460;-58
2023/08/15 01:09:28;;;;;;;6.20;3.70;;;;;;;;;;5092940;28;20530;-58
2023/08/15 01:12:00;;;;;;;5.63;3.60;;;;;;;;;;5092394;28;20475;-57
2023/08/15 01:14:31;;;;;;;3.93;3.50;;;;;;;;;;5092346;28;20473;-57
2023/08/15 01:16:58;;;;;;;8.87;3.83;;;;;;;;;;5092388;28;20464;-59
2023/08/15 01:19:31;;;;;;;5.00;3.83;;;;;;;;;;5092401;28;20884;-57
2023/08/15 01:21:59;;;;;;;4.10;3.70;;;;;;;;;;5092258;28;20443;-57
2023/08/15 01:24:28;;;;;;;7.00;3.77;;;;;;;;;;5092300;28;20479;-57
2023/08/15 01:26:55;;;;;;;4.43;3.87;;;;;;;;;;5092160;28;20542;-57
2023/08/15 01:29:22;;;;;;;4.53;3.40;;;;;;;;;;5092369;28;20487;-57
2023/08/15 01:31:54;;;;;;;7.03;4.47;;;;;;;;;;5091996;28;20518;-58
2023/08/15 01:34:23;;;;;;;6.27;4.00;;;;;;;;;;5092477;28;20522;-57
2023/08/15 01:37:06;;;;;;;4.03;3.50;;;;;;;;;;5092654;28;20534;-58
2023/08/15 01:39:36;;;;;;;5.93;4.17;;;;;;;;;;5092337;28;20986;-55
2023/08/15 01:42:04;;;;;;;5.97;3.90;;;;;;;;;;5091751;28;20468;-57
2023/08/15 01:44:32;;;;;;;6.23;3.83;;;;;;;;;;5092222;28;20473;-57
2023/08/15 01:46:59;;;;;;;4.53;3.90;;;;;;;;;;5092600;28;20563;-56
2023/08/15 01:49:26;;;;;;;6.33;3.33;;;;;;;;;;5090727;28;20875;-56
2023/08/15 01:51:54;;;;;;;5.37;4.03;;;;;;;;;;5091250;28;20535;-59
2023/08/15 01:54:21;;;;;;;6.83;4.10;;;;;;;;;;5091799;28;20594;-56
2023/08/15 01:56:50;;;;;;;4.73;4.23;;;;;;;;;;5091764;28;20467;-56
2023/08/15 01:59:17;;;;;;;4.10;3.20;;;;;;;;;;5092451;28;20515;-57
2023/08/15 02:01:44;;;;;;;5.93;3.87;;;;;;;;;;5091395;28;20954;-57
2023/08/15 02:04:12;;;;;;;3.70;3.03;;;;;;;;;;5091274;28;20561;-58
2023/08/15 02:06:39;;;;;;;4.80;4.13;;;;;;;;;;5091552;28;20435;-56
2023/08/15 02:09:06;;;;;;;6.57;4.17;;;;;;;;;;5091378;28;20490;-56
2023/08/15 02:11:34;;;;;;;7.53;4.20;;;;;;;;;;5091362;28;20475;-53
2023/08/15 02:14:02;;;;;;;6.30;4.10;;;;;;;;;;5091131;28;20902;-57
2023/08/15 02:16:29;;;;;;;4.77;3.77;;;;;;;;;;5091843;28;20440;-55
2023/08/15 02:18:57;;;;;;;3.90;3.47;;;;;;;;;;5091249;28;20443;-57
2023/08/15 02:21:24;;;;;;;5.27;3.80;;;;;;;;;;5090870;28;20864;-55
2023/08/15 02:23:51;;;;;;;4.30;3.30;;;;;;;;;;5091426;28;20511;-58
2023/08/15 02:26:18;;;;;;;6.47;3.63;;;;;;;;;;5091238;28;20536;-57
2023/08/15 02:28:46;;;;;;;4.37;3.90;;;;;;;;;;5091780;28;20516;-55
2023/08/15 02:31:14;;;;;;;4.67;3.60;;;;;;;;;;5091066;28;20467;-57
2023/08/15 02:33:41;;;;;;;4.50;3.97;;;;;;;;;;5091137;28;20431;-56
2023/08/15 02:36:09;;;;;;;6.27;3.80;;;;;;;;;;5091096;28;20443;-56
2023/08/15 02:38:36;;;;;;;4.80;4.30;;;;;;;;;;5089847;28;20558;-55
2023/08/15 02:41:03;;;;;;;6.03;3.57;;;;;;;;;;5091024;28;20467;-58
2023/08/15 02:43:31;;;;;;;4.40;3.70;;;;;;;;;;5091048;28;20518;-55
2023/08/15 02:45:58;;;;;;;5.23;4.30;;;;;;;;;;5090802;28;20859;-55
2023/08/15 02:48:26;;;;;;;9.43;4.10;;;;;;;;;;5090765;28;20459;-56
2023/08/15 02:50:54;;;;;;;5.00;4.27;;;;;;;;;;5088923;28;20471;-58
2023/08/15 02:53:21;;;;;;;5.80;3.73;;;;;;;;;;5090687;28;20557;-57
2023/08/15 02:55:51;;;;;;;5.10;4.10;;;;;;;;;;5090976;28;20530;-59
2023/08/15 02:58:18;;;;;;;4.60;3.83;;;;;;;;;;5090625;28;20550;-56
2023/08/15 03:00:46;;;;;;;5.33;3.60;;;;;;;;;;5090554;28;20475;-57
2023/08/15 03:03:13;;;;;;;5.10;4.00;;;;;;;;;;5089834;28;20588;-55
2023/08/15 03:05:41;;;;;;;4.97;3.90;;;;;;;;;;5090541;28;21010;-57
2023/08/15 03:08:09;;;;;;;5.23;3.83;;;;;;;;;;5090357;28;20487;-57
2023/08/15 03:10:36;;;;;;;4.50;3.87;;;;;;;;;;5090216;28;20534;-57
2023/08/15 03:13:04;;;;;;;5.47;3.80;;;;;;;;;;5090000;28;20435;-56
2023/08/15 03:15:31;;;;;;;5.97;4.00;;;;;;;;;;5090575;28;20440;-58
2023/08/15 03:17:58;;;;;;;5.53;4.13;;;;;;;;;;5089837;28;21036;-55
2023/08/15 03:20:25;;;;;;;6.37;3.90;;;;;;;;;;5089852;28;20479;-57
2023/08/15 03:22:54;;;;;;;4.07;3.43;;;;;;;;;;5090051;28;20515;-55
2023/08/15 03:25:21;;;;;;;5.87;4.07;;;;;;;;;;5090614;28;20523;-57
2023/08/15 03:27:49;;;;;;;5.07;4.57;;;;;;;;;;5090240;28;20470;-57
2023/08/15 03:30:16;;;;;;;4.83;4.27;;;;;;;;;;5089620;28;20740;-57
2023/08/15 03:32:43;;;;;;;5.07;4.17;;;;;;;;;;5090428;28;20457;-57
2023/08/15 03:35:10;;;;;;;4.30;3.87;;;;;;;;;;5090260;28;20518;-58
2023/08/15 03:37:38;;;;;;;6.20;4.13;;;;;;;;;;5089917;28;20459;-57
2023/08/15 03:40:07;;;;;;;5.30;4.20;;;;;;;;;;5089004;28;20810;-57
2023/08/15 03:42:34;;;;;;;5.57;4.23;;;;;;;;;;5090127;28;20450;-57
2023/08/15 03:45:02;;;;;;;4.70;4.17;;;;;;;;;;5090012;28;20471;-55
2023/08/15 03:47:29;;;;;;;5.93;4.23;;;;;;;;;;5090880;28;20487;-56
2023/08/15 03:49:59;;;;;;;4.97;4.40;;;;;;;;;;5089556;28;20526;-55
2023/08/15 03:52:26;;;;;;;11.90;4.30;;;;;;;;;;5089540;28;20443;-58
2023/08/15 03:54:53;;;;;;;4.70;4.20;;;;;;;;;;5090378;28;20432;-57
2023/08/15 03:57:22;;;;;;;5.67;3.80;;;;;;;;;;5090592;28;20571;-57
2023/08/15 03:59:49;;;;;;;4.80;3.93;;;;;;;;;;5090343;28;20524;-58
2023/08/15 04:02:16;;;;;;;6.10;4.23;;;;;;;;;;5089949;28;20945;-57
2023/08/15 04:04:44;;;;;;;6.20;4.23;;;;;;;;;;5090329;28;20472;-59
2023/08/15 04:07:11;;;;;;;6.10;3.97;;;;;;;;;;5089645;28;20499;-57
2023/08/15 04:09:38;;;;;;;6.57;4.60;;;;;;;;;;5089397;28;20450;-57
2023/08/15 04:12:06;;;;;;;6.97;3.83;;;;;;;;;;5090184;28;20469;-57
2023/08/15 04:14:34;;;;;;;4.43;4.00;;;;;;;;;;5090265;28;20431;-58
2023/08/15 04:17:02;;;;;;;6.83;4.17;;;;;;;;;;5090069;28;20513;-57
2023/08/15 04:19:29;;;;;;;4.80;4.30;;;;;;;;;;5074839;28;20444;-57
2023/08/15 04:21:56;;;;;;;4.90;3.90;;;;;;;;;;5089293;28;20443;-57
2023/08/15 04:24:23;;;;;;;4.77;3.80;;;;;;;;;;5089678;28;20503;-55
2023/08/15 04:26:51;;;;;;;6.53;4.07;;;;;;;;;;5090223;28;20455;-57
2023/08/15 04:29:18;;;;;;;4.93;3.57;;;;;;;;;;5089548;28;20479;-57
2023/08/15 04:31:47;;;;;;;5.43;3.97;;;;;;;;;;5092472;28;20443;-56
2023/08/15 04:34:14;;;;;;;7.33;5.70;;;;;;;;;;5093015;28;20465;-56
2023/08/15 04:36:46;;;;;;;8.20;3.87;;;;;;;;;;5092982;28;20436;-57
2023/08/15 04:39:13;;;;;;;5.00;4.40;;;;;;;;;;5093635;28;20451;-56
2023/08/15 04:41:41;;;;;;;8.03;3.90;;;;;;;;;;5093274;28;20487;-58
2023/08/15 04:44:10;;;;;;;4.77;3.70;;;;;;;;;;5092576;28;20482;-58
2023/08/15 04:46:37;;;;;;;4.60;3.33;;;;;;;;;;5093021;28;20449;-58
2023/08/15 04:49:06;;;;;;;5.20;4.10;;;;;;;;;;5093026;28;20860;-56
2023/08/15 04:51:33;;;;;;;6.67;4.33;;;;;;;;;;5092270;28;20444;-57
2023/08/15 04:54:00;;;;;;;5.87;4.70;;;;;;;;;;5092418;28;20502;-57
2023/08/15 04:56:28;;;;;;;4.90;3.83;;;;;;;;;;5092972;28;20522;-56
2023/08/15 04:58:55;;;;;;;5.47;4.00;;;;;;;;;;5093421;28;20474;-58
2023/08/15 05:01:23;;;;;;;6.00;4.33;;;;;;;;;;5093277;28;20459;-56
2023/08/15 05:03:50;;;;;;;5.70;3.67;;;;;;;;;;5092407;28;20477;-57
2023/08/15 05:06:18;;;;;;;5.50;4.90;;;;;;;;;;5093054;28;20474;-55
2023/08/15 05:08:46;;;;;;;5.10;4.27;;;;;;;;;;5092114;28;20460;-57
2023/08/15 05:11:13;;;;;;;5.10;4.20;;;;;;;;;;5092611;28;20493;-56
2023/08/15 05:13:40;;;;;;;5.63;4.10;;;;;;;;;;5092206;28;20442;-56
2023/08/15 05:16:07;;;;;;;5.13;4.10;;;;;;;;;;5092842;28;20500;-55
2023/08/15 05:18:35;;;;;;;6.57;4.30;;;;;;;;;;5092140;28;20905;-56
2023/08/15 05:21:02;;;;;;;6.03;4.03;;;;;;;;;;5092404;28;20527;-57
2023/08/15 05:23:30;;;;;;;7.67;4.07;;;;;;;;;;5091591;28;20499;-58
2023/08/15 05:25:58;;;;;;;5.40;4.57;;;;;;;;;;5092018;28;20471;-58
2023/08/15 05:28:25;;;;;;;6.17;4.73;;;;;;;;;;5092629;28;20451;-56
2023/08/15 05:30:52;;;;;;;5.47;4.00;;;;;;;;;;5092350;28;21033;-57
2023/08/15 05:33:19;;;;;;;8.10;4.70;;;;;;;;;;5091633;28;20529;-57
2023/08/15 05:35:47;;;;;;;5.10;4.57;;;;;;;;;;5091853;28;20482;-57
2023/08/15 05:38:14;;;;;;;6.97;4.30;;;;;;;;;;5092671;28;20455;-55
2023/08/15 05:40:42;;;;;;;5.37;4.87;;;;;;;;;;5091395;28;20440;-56
2023/08/15 05:43:10;;;;;;;5.37;4.53;;;;;;;;;;5090705;28;20884;-56
2023/08/15 05:45:37;;;;;;;4.70;3.93;;;;;;;;;;5091637;28;20497;-57
2023/08/15 05:48:04;;;;;;;4.87;4.00;;;;;;;;;;5091382;28;20494;-58
2023/08/15 05:50:32;;;;;;;6.93;4.67;;;;;;;;;;5087602;28;20467;-58
2023/08/15 05:52:59;;;;;;;5.90;4.50;;;;;;;;;;5091362;28;20475;-57
2023/08/15 05:55:26;;;;;;;4.37;3.93;;;;;;;;;;5091042;28;20455;-57
2023/08/15 05:57:55;;;;;;;7.90;5.00;;;;;;;;;;5090684;28;20531;-57
2023/08/15 06:00:22;;;;;;;6.07;4.73;;;;;;;;;;5091269;28;20814;-57
2023/08/15 06:02:49;;;;;;;5.67;4.60;;;;;;;;;;5090691;28;20469;-57
2023/08/15 06:05:17;;;;;;;5.60;5.07;;;;;;;;;;5091116;28;20563;-57
2023/08/15 06:07:44;;;;;;;5.80;4.37;;;;;;;;;;5090944;28;20468;-56
2023/08/15 06:10:11;;;;;;;4.90;4.40;;;;;;;;;;5090563;28;20910;-57
2023/08/15 06:12:38;;;;;;;7.80;5.10;;;;;;;;;;5090693;28;20530;-58
2023/08/15 06:15:07;;;;;;;7.77;5.00;;;;;;;;;;5090428;28;20989;-56
2023/08/15 06:17:35;;;;;;;6.93;4.93;;;;;;;;;;5090629;28;20554;-56
2023/08/15 06:20:03;;;;;;;8.23;5.23;;;;;;;;;;5090191;28;20501;-58
2023/08/15 06:22:30;;;;;;;8.10;5.57;;;;;;;;;;5090874;28;20436;-58
2023/08/15 06:24:57;;;;;;;5.90;5.30;;;;;;;;;;5090699;28;21052;-56
2023/08/15 06:27:24;;;;;;;5.67;5.07;;;;;;;;;;5090577;28;20498;-57
2023/08/15 06:29:52;;;;;;;7.10;4.77;;;;;;;;;;5090209;28;20527;-58
2023/08/15 06:32:30;;;;;;;5.53;5.03;;;;;;;;;;5090871;28;20463;-56
2023/08/15 06:34:58;;;;;;;6.97;5.60;;;;;;;;;;5090603;28;20957;-55
2023/08/15 06:37:25;;;;;;;5.27;4.77;;;;;;;;;;5090026;28;20455;-58
2023/08/15 06:39:52;;;;;;;5.70;4.30;;;;;;;;;;5089605;28;20527;-60
2023/08/15 06:42:20;;;;;;;5.13;4.33;;;;;;;;;;5090280;28;21009;-54
2023/08/15 06:44:47;;;;;;;7.90;5.70;;;;;;;;;;5090252;28;20566;-58
2023/08/15 06:47:14;;;;;;;8.97;6.17;;;;;;;;;;5090256;28;20509;-57
2023/08/15 06:49:43;;;;;;;6.70;5.97;;;;;;;;;;5087131;28;20472;-56
2023/08/15 06:52:10;;;;;;;6.77;6.07;;;;;;;;;;5089189;28;20439;-57
2023/08/15 06:54:37;;;;;;;7.27;6.30;;;;;;;;;;5089590;28;20994;-57
2023/08/15 06:57:07;;;;;;;9.20;6.47;;;;;;;;;;5089674;28;20538;-57
2023/08/15 06:59:35;;;;;;;6.87;6.17;;;;;;;;;;5089695;28;20443;-56
2023/08/15 07:02:02;;;;;;;6.87;6.13;;;;;;;;;;5086531;28;20942;-57
2023/08/15 07:04:30;;;;;;;6.30;5.57;;;;;;;;;;5090017;28;20558;-56
2023/08/15 07:06:58;;;;;;;6.43;5.83;;;;;;;;;;5089477;28;20508;-57
2023/08/15 07:09:28;;;;;;;6.30;5.00;;;;;;;;;;5090491;28;20467;-57
2023/08/15 07:11:55;;;;;;;5.77;5.13;;;;;;;;;;5087753;28;20519;-56
2023/08/15 07:14:22;;;;;;;5.53;4.93;;;;;;;;;;5087928;28;20922;-57
2023/08/15 07:16:49;;;;;;;7.03;5.03;;;;;;;;;;5088729;28;20829;-58
2023/08/15 07:19:17;;;;;;;7.27;6.10;;;;;;;;;;5088347;28;20439;-57
2023/08/15 07:21:45;;;;;;;5.93;4.90;;;;;;;;;;5086597;28;20513;-57
2023/08/15 07:24:14;;;;;;;5.83;5.33;;;;;;;;;;5089214;28;20551;-58
2023/08/15 07:26:41;;;;;;;6.10;4.80;;;;;;;;;;5086783;28;20522;-57
2023/08/15 07:29:08;;;;;;;9.67;6.20;;;;;;;;;;5088812;28;20643;-58
2023/08/15 07:31:35;;;;;;;6.13;5.53;;;;;;;;;;5090311;28;20527;-56
2023/08/15 07:34:03;;;;;;;8.73;5.57;;;;;;;;;;5089574;28;20439;-56
2023/08/15 07:36:30;;;;;;;6.80;6.20;;;;;;;;;;5089700;28;20531;-57
2023/08/15 07:38:57;;;;;;;6.00;5.20;;;;;;;;;;5088667;28;20532;-58
2023/08/15 07:41:26;;;;;;;6.80;5.43;;;;;;;;;;5088207;28;20471;-57
2023/08/15 07:43:53;;;;;;;10.00;5.87;;;;;;;;;;5089442;28;20481;-56
2023/08/15 07:46:20;;;;;;;6.07;5.47;;;;;;;;;;5090545;28;20844;-57
2023/08/15 07:48:48;;;;;;;8.03;6.00;;;;;;;;;;5089989;28;20942;-57
2023/08/15 07:51:15;;;;;;;6.07;5.47;;;;;;;;;;5089742;28;20446;-58
2023/08/15 07:53:42;;;;;;;6.30;5.70;;;;;;;;;;5089338;28;20489;-56
2023/08/15 07:56:10;;;;;;;10.60;5.90;;;;;;;;;;5090537;28;20509;-57
2023/08/15 07:58:38;;;;;;;6.90;6.23;;;;;;;;;;5088465;28;20531;-57
2023/08/15 08:01:06;;;;;;;10.57;8.40;;;;;;;;;;5088969;28;20964;-58
2023/08/15 08:03:33;;;;;;;6.80;6.20;;;;;;;;;;5089661;28;20535;-57
2023/08/15 08:06:00;;;;;;;7.40;6.60;;;;;;;;;;5093820;28;20536;-55
2023/08/15 08:08:28;;;;;;;7.50;6.03;;;;;;;;;;5092328;28;20455;-57
2023/08/15 08:10:55;;;;;;;5.93;5.33;;;;;;;;;;5089966;28;21481;-56
2023/08/15 08:13:22;;;;;;;7.00;5.70;;;;;;;;;;5092957;28;20568;-58
2023/08/15 08:15:51;;;;;;;6.17;5.63;;;;;;;;;;5092516;28;20451;-57
2023/08/15 08:18:18;;;;;;;6.70;5.80;;;;;;;;;;5090361;28;20455;-58
2023/08/15 08:20:45;;;;;;;6.20;5.60;;;;;;;;;;5093288;28;20929;-57
2023/08/15 08:23:13;;;;;;;7.77;5.23;;;;;;;;;;5092081;28;20926;-58
2023/08/15 08:25:40;;;;;;;7.00;5.37;;;;;;;;;;5092580;28;20475;-57
2023/08/15 08:28:08;;;;;;;6.33;5.73;;;;;;;;;;5096753;22;20598;-55
2023/08/15 08:30:36;;;;;;;6.10;5.50;;;;;;;;;;5068406;28;20524;-55
2023/08/15 08:33:04;;;;;;;8.70;5.80;;;;;;;;;;5064705;28;20836;-54
2023/08/15 08:35:32;;;;;;;7.40;5.50;;;;;;;;;;5066210;28;20433;-54
2023/08/15 08:37:59;;;;;;;6.90;6.20;;;;;;;;;;5068018;28;20457;-54
2023/08/15 08:40:26;;;;;;;7.20;5.80;;;;;;;;;;5060107;28;20471;-54
2023/08/15 08:42:54;;;;;;;5.80;5.10;;;;;;;;;;5072224;28;20436;-54
2023/08/15 08:45:24;;;;;;;5.77;5.23;;;;;;;;;;5071858;28;20534;-54
2023/08/15 08:47:52;;;;;;;5.80;5.30;;;;;;;;;;5065247;28;20481;-55
2023/08/15 08:50:21;;;;;;;5.33;4.83;;;;;;;;;;5063339;28;20472;-54
2023/08/15 08:52:49;;;;;;;8.83;6.00;;;;;;;;;;5067254;28;20468;-54
2023/08/15 08:55:17;;;;;;;5.67;4.73;;;;;;;;;;5069084;28;20963;-54
2023/08/15 08:57:46;;;;;;;6.53;5.80;;;;;;;;;;5069627;28;20448;-55
2023/08/15 09:00:14;;;;;;;6.20;5.60;;;;;;;;;;5068977;28;20460;-54
2023/08/15 09:02:42;;;;;;;7.83;5.40;;;;;;;;;;5067843;28;20852;-55
2023/08/15 09:05:11;;;;;;;5.73;5.07;;;;;;;;;;5062464;28;20598;-55
2023/08/15 09:07:42;;;;;;;5.40;4.90;;;;;;;;;;5062017;28;20456;-55
2023/08/15 09:10:09;;;;;;;6.43;5.10;;;;;;;;;;5065504;28;20451;-55
2023/08/15 09:12:37;;;;;;;5.17;4.67;;;;;;;;;;5063716;28;20942;-54
2023/08/15 09:15:08;;;;;;;5.20;4.70;;;;;;;;;;5071097;28;20436;-54
2023/08/15 09:17:36;;;;;;;7.20;5.17;;;;;;;;;;5068009;28;20499;-55
2023/08/15 09:20:11;;;;;;;7.17;5.30;;;;;;;;;;5069857;28;20723;-54
2023/08/15 09:22:40;;;;;;;7.10;4.93;;;;;;;;;;5070968;28;20452;-55
2023/08/15 09:25:10;;;;;;;5.90;5.20;;;;;;;;;;5071037;28;20480;-54
2023/08/15 09:27:38;;;;;;;5.83;5.30;;;;;;;;;;5067157;28;20468;-54
2023/08/15 09:30:09;;;;;;;6.40;5.63;;;;;;;;;;5071130;28;20523;-54
2023/08/15 09:32:36;;;;;;;6.40;5.80;;;;;;;;;;5067255;28;20448;-54
2023/08/15 09:35:04;;;;;;;6.50;5.90;;;;;;;;;;5070418;28;20515;-55
2023/08/15 09:37:31;;;;;;;8.20;5.70;;;;;;;;;;5068561;28;20559;-55
2023/08/15 09:39:58;;;;;;;7.03;5.17;;;;;;;;;;5067500;28;20842;-55
2023/08/15 09:42:27;;;;;;;6.33;5.30;;;;;;;;;;5069737;28;20967;-55
2023/08/15 09:44:54;;;;;;;6.33;5.50;;;;;;;;;;5069358;28;20592;-55
2023/08/15 09:47:22;;;;;;;6.00;5.40;;;;;;;;;;5070761;28;20858;-55
2023/08/15 09:49:52;;;;;;;6.13;5.63;;;;;;;;;;5071371;28;20520;-55
2023/08/15 09:52:20;;;;;;;9.40;5.73;;;;;;;;;;5068967;28;20445;-55
2023/08/15 09:54:48;;;;;;;6.17;5.57;;;;;;;;;;5066510;28;20603;-55
2023/08/15 09:57:15;;;;;;;6.37;5.77;;;;;;;;;;5070118;28;20550;-55
2023/08/15 09:59:44;;;;;;;6.07;5.47;;;;;;;;;;5069588;28;20506;-55
2023/08/15 10:02:15;;;;;;;6.90;6.30;;;;;;;;;;5069117;28;20483;-55
2023/08/15 10:04:43;;;;;;;6.37;5.70;;;;;;;;;;5066688;28;20437;-55
2023/08/15 10:07:11;;;;;;;6.93;6.30;;;;;;;;;;5070063;28;20460;-55
2023/08/15 10:09:38;;;;;;;5.67;5.17;;;;;;;;;;5070592;28;20448;-55
2023/08/15 10:12:06;;;;;;;6.30;5.70;;;;;;;;;;5067350;28;20488;-55
2023/08/15 10:14:33;;;;;;;6.40;5.80;;;;;;;;;;5069996;28;20437;-55
2023/08/15 10:17:02;;;;;;;14.57;5.63;;;;;;;;;;5070336;28;20529;-54
2023/08/15 10:19:30;;;;;;;8.03;6.30;;;;;;;;;;5068642;28;20479;-55
2023/08/15 10:21:58;;;;;;;6.50;5.57;;;;;;;;;;5068410;28;20528;-55
2023/08/15 10:24:26;;;;;;;4.80;4.30;;;;;;;;;;5070159;28;20497;-55
2023/08/15 10:26:54;;;;;;;4.90;4.50;;;;;;;;;;5067358;28;20472;-55
2023/08/15 10:29:21;;;;;;;5.70;5.17;;;;;;;;;;5069608;28;20487;-55
2023/08/15 10:31:58;;;;;;;5.13;4.67;;;;;;;;;;5068561;28;21010;-55
2023/08/15 10:34:33;;;;;;;5.67;4.97;;;;;;;;;;5068415;28;20460;-55
2023/08/15 10:37:15;;;;;;;5.70;5.13;;;;;;;;;;5066258;28;20459;-55
2023/08/15 10:39:42;;;;;;;6.30;5.70;;;;;;;;;;5069735;28;20501;-55
2023/08/15 10:42:10;;;;;;;6.63;6.13;;;;;;;;;;5070063;28;20515;-55
2023/08/15 10:44:39;;;;;;;6.10;5.43;;;;;;;;;;5070660;28;20433;-55
2023/08/15 10:47:21;;;;;;;6.50;5.90;;;;;;;;;;5069441;28;20476;-55
2023/08/15 10:49:54;;;;;;;5.73;5.13;;;;;;;;;;5068734;28;20542;-55
2023/08/15 10:52:21;;;;;;;6.20;5.60;;;;;;;;;;5058312;28;20461;-55
2023/08/15 10:54:49;;;;;;;5.87;5.30;;;;;;;;;;5051761;28;20786;-55
2023/08/15 10:57:16;;;;;;;7.00;5.57;;;;;;;;;;5065860;28;20556;-56
2023/08/15 10:59:44;;;;;;;7.33;5.83;;;;;;;;;;5069604;28;20915;-55
2023/08/15 11:02:12;;;;;;;6.73;5.37;;;;;;;;;;5069440;28;20941;-54
2023/08/15 11:04:40;;;;;;;5.50;5.00;;;;;;;;;;5069706;28;20898;-55
2023/08/15 11:07:09;;;;;;;5.67;5.17;;;;;;;;;;5069481;28;20504;-55
2023/08/15 11:09:36;;;;;;;6.10;4.73;;;;;;;;;;5070058;28;20524;-55
2023/08/15 11:12:07;;;;;;;5.60;5.00;;;;;;;;;;5063082;28;20531;-54
2023/08/15 11:14:35;;;;;;;6.90;6.27;;;;;;;;;;5069020;28;20440;-54
2023/08/15 11:17:03;;;;;;;5.93;4.77;;;;;;;;;;5069652;28;20449;-55
2023/08/15 11:19:30;;;;;;;5.50;5.00;;;;;;;;;;5069837;28;20440;-55
2023/08/15 11:21:58;;;;;;;6.40;5.00;;;;;;;;;;5064163;28;20448;-55
2023/08/15 11:24:31;;;;;;;5.27;4.77;;;;;;;;;;5070008;28;20443;-56
2023/08/15 11:26:58;;;;;;;8.50;5.40;;;;;;;;;;5069974;28;20603;-56
2023/08/15 11:29:26;;;;;;;6.40;5.80;;;;;;;;;;5069871;28;20432;-55
2023/08/15 11:31:58;;;;;;;5.23;4.73;;;;;;;;;;5065128;28;20845;-55
2023/08/15 11:34:25;;;;;;;5.47;4.97;;;;;;;;;;5067517;28;20503;-54
2023/08/15 11:36:53;;;;;;;6.63;5.00;;;;;;;;;;5064482;28;20876;-55
2023/08/15 11:39:20;;;;;;;6.50;5.90;;;;;;;;;;5070374;28;20432;-54
2023/08/15 11:41:49;;;;;;;6.50;5.43;;;;;;;;;;5071594;28;20436;-55
2023/08/15 11:44:21;;;;;;;6.10;5.50;;;;;;;;;;5068857;28;20480;-55
2023/08/15 11:46:48;;;;;;;6.17;5.60;;;;;;;;;;5069794;28;21083;-55
2023/08/15 11:49:18;;;;;;;6.33;5.67;;;;;;;;;;5071594;28;20531;-56
2023/08/15 11:51:45;;;;;;;6.87;5.70;;;;;;;;;;5073188;28;20915;-55
2023/08/15 11:54:13;;;;;;;7.37;6.67;;;;;;;;;;5064913;28;20447;-56
2023/08/15 11:56:51;;;;;;;6.30;5.70;;;;;;;;;;5073080;28;20472;-55
2023/08/15 11:59:18;;;;;;;6.27;5.77;;;;;;;;;;5074131;28;20440;-55
2023/08/15 12:01:45;;;;;;;13.70;6.50;;;;;;;;;;5069923;28;20543;-55
2023/08/15 12:04:13;;;;;;;6.70;6.10;;;;;;;;;;5073572;28;20889;-56
2023/08/15 12:06:41;;;;;;;6.70;6.00;;;;;;;;;;5073175;28;20790;-55
2023/08/15 12:09:08;;;;;;;6.43;5.83;;;;;;;;;;5073885;28;20872;-55
2023/08/15 12:11:36;;;;;;;8.57;5.63;;;;;;;;;;5073469;28;20493;-56
2023/08/15 12:14:04;;;;;;;6.00;5.40;;;;;;;;;;5070783;28;20453;-56
2023/08/15 12:16:32;;;;;;;5.80;5.30;;;;;;;;;;5069749;28;20479;-55
2023/08/15 12:18:59;;;;;;;6.17;5.17;;;;;;;;;;5066476;28;20510;-55
2023/08/15 12:21:26;;;;;;;5.30;4.80;;;;;;;;;;5068866;28;20519;-53
2023/08/15 12:23:54;;;;;;;5.70;4.93;;;;;;;;;;5069067;28;20444;-56
2023/08/15 12:26:21;;;;;;;6.10;5.57;;;;;;;;;;5072821;28;20564;-55
2023/08/15 12:28:48;;;;;;;6.60;5.30;;;;;;;;;;5070128;28;20510;-55
2023/08/15 12:31:17;;;;;;;5.73;5.13;;;;;;;;;;5071716;28;20436;-55
2023/08/15 12:33:44;;;;;;;6.63;6.10;;;;;;;;;;5072363;28;20440;-55
2023/08/15 12:36:11;;;;;;;5.43;4.60;;;;;;;;;;5067212;28;20498;-54
2023/08/15 12:38:38;;;;;;;7.13;6.43;;;;;;;;;;5070480;28;20456;-55
2023/08/15 12:41:07;;;;;;;6.30;5.70;;;;;;;;;;5071271;28;20871;-56
2023/08/15 12:43:34;;;;;;;5.63;5.00;;;;;;;;;;5071205;28;20576;-54
2023/08/15 12:46:02;;;;;;;6.00;5.50;;;;;;;;;;5072480;28;20559;-55
2023/08/15 12:48:31;;;;;;;6.50;5.47;;;;;;;;;;5072643;28;20561;-55
2023/08/15 12:50:59;;;;;;;7.57;5.50;;;;;;;;;;5063495;28;20433;-55
2023/08/15 12:53:26;;;;;;;6.20;5.60;;;;;;;;;;5070373;28;20441;-55
2023/08/15 12:55:53;;;;;;;6.00;5.13;;;;;;;;;;5072151;28;20532;-54
2023/08/15 12:58:21;;;;;;;6.07;4.80;;;;;;;;;;5071482;28;20579;-55
2023/08/15 13:00:48;;;;;;;6.70;4.67;;;;;;;;;;5070347;28;20432;-55
2023/08/15 13:03:15;;;;;;;7.00;5.20;;;;;;;;;;5072364;28;20448;-55
2023/08/15 13:05:44;;;;;;;11.17;4.60;;;;;;;;;;5072951;28;20485;-54
2023/08/15 13:08:11;;;;;;;10.33;3.50;;;;;;;;;;5072527;28;20456;-54
2023/08/15 13:10:39;;;;;;;6.43;3.00;;;;;;;;;;5072037;28;20784;-55
2023/08/15 13:13:06;;;;;;;5.73;3.30;;;;;;;;;;5072433;28;20502;-55
2023/08/15 13:15:33;;;;;;;6.70;4.47;;;;;;;;;;5072235;28;20499;-54
2023/08/15 13:18:00;;;;;;;6.23;4.30;;;;;;;;;;5072247;28;20464;-55
2023/08/15 13:20:27;;;;;;;6.00;4.17;;;;;;;;;;5072351;28;20519;-55
2023/08/15 13:22:56;;;;;;;5.40;4.00;;;;;;;;;;5072157;28;20444;-54
2023/08/15 13:25:23;;;;;;;6.57;4.67;;;;;;;;;;5072537;28;20444;-54
2023/08/15 13:27:51;;;;;;;4.07;3.60;;;;;;;;;;5072053;28;20679;-55
2023/08/15 13:30:18;;;;;;;4.93;4.43;;;;;;;;;;5072264;28;20470;-55
2023/08/15 13:32:45;;;;;;;5.00;4.50;;;;;;;;;;5072002;28;20470;-55
2023/08/15 13:35:12;;;;;;;4.20;3.80;;;;;;;;;;5072306;28;20448;-54
2023/08/15 13:37:40;;;;;;;4.80;3.80;;;;;;;;;;5072316;28;20456;-55
2023/08/15 13:40:10;;;;;;;5.93;4.60;;;;;;;;;;5071816;28;20440;-55
2023/08/15 13:42:37;;;;;;;4.53;3.83;;;;;;;;;;5071915;28;20471;-55
2023/08/15 13:45:04;;;;;;;5.47;3.40;;;;;;;;;;5071300;28;20479;-55
2023/08/15 13:47:32;;;;;;;5.60;4.30;;;;;;;;;;5067502;28;20630;-56
2023/08/15 13:49:59;;;;;;;5.40;4.07;;;;;;;;;;5062806;28;20525;-54
2023/08/15 13:52:26;;;;;;;5.20;4.10;;;;;;;;;;5069325;28;20469;-54
2023/08/15 13:54:53;;;;;;;7.60;4.57;;;;;;;;;;5068996;28;20444;-54
2023/08/15 13:57:22;;;;;;;5.03;4.10;;;;;;;;;;5065374;28;20538;-54
2023/08/15 13:59:49;;;;;;;5.23;4.37;;;;;;;;;;5069966;28;20513;-55
2023/08/15 14:02:16;;;;;;;5.23;4.40;;;;;;;;;;5070406;28;20440;-54
2023/08/15 14:04:44;;;;;;;5.70;4.17;;;;;;;;;;5067329;28;20531;-55
2023/08/15 14:07:11;;;;;;;4.23;3.83;;;;;;;;;;5069321;28;20564;-54
2023/08/15 14:09:38;;;;;;;5.00;3.97;;;;;;;;;;5070806;28;20472;-55
2023/08/15 14:12:05;;;;;;;4.77;4.30;;;;;;;;;;5068501;28;20436;-54
2023/08/15 14:14:36;;;;;;;6.27;4.50;;;;;;;;;;5070047;28;20440;-55
2023/08/15 14:17:04;;;;;;;4.50;4.10;;;;;;;;;;5070626;28;20448;-55
2023/08/15 14:19:31;;;;;;;4.37;3.97;;;;;;;;;;5068071;28;20471;-54
2023/08/15 14:21:58;;;;;;;3.50;3.20;;;;;;;;;;5070258;28;20494;-54
2023/08/15 14:24:25;;;;;;;4.40;4.00;;;;;;;;;;5070195;28;20775;-55
2023/08/15 14:26:53;;;;;;;5.10;4.03;;;;;;;;;;5069843;28;21093;-55
2023/08/15 14:29:20;;;;;;;4.80;4.13;;;;;;;;;;5103702;22;20533;-59
2023/08/15 14:31:48;;;;;;;4.23;3.57;;;;;;;;;;5089659;28;20435;-59
2023/08/15 14:34:16;;;;;;;3.93;3.40;;;;;;;;;;5090658;28;20471;-59
2023/08/15 14:36:43;;;;;;;4.37;3.97;;;;;;;;;;5090599;28;20485;-59
2023/08/15 14:39:10;;;;;;;5.77;3.47;;;;;;;;;;5090346;28;21057;-59
2023/08/15 14:41:37;;;;;;;4.30;3.33;;;;;;;;;;5090254;28;20500;-59
2023/08/15 14:44:05;;;;;;;4.20;3.80;;;;;;;;;;5088659;28;20463;-59
2023/08/15 14:46:32;;;;;;;3.80;3.50;;;;;;;;;;5090354;28;20534;-60